createdAt,value
2023-04-29T00:00:54.920Z,9.719127
2023-04-29T00:01:54.969Z,9.719061
2023-04-29T00:02:55.041Z,9.719227
2023-04-29T00:03:55.032Z,9.719156
2023-04-29T00:04:55.052Z,9.719166
2023-04-29T00:05:54.966Z,9.719131
2023-04-29T00:06:54.896Z,9.719075
2023-04-29T00:07:54.844Z,9.719285
2023-04-29T00:08:55.362Z,9.719296
2023-04-29T00:09:54.825Z,9.719000
2023-04-29T00:10:55.834Z,9.719254
2023-04-29T00:11:54.813Z,9.719144
2023-04-29T00:12:54.800Z,9.719149
2023-04-29T00:13:54.811Z,9.719107
2023-04-29T00:14:54.786Z,9.719159
2023-04-29T00:15:54.757Z,9.719107
2023-04-29T00:16:54.761Z,9.719188
2023-04-29T00:17:54.824Z,9.719042
2023-04-29T00:18:54.768Z,9.718736
2023-04-29T00:19:54.963Z,9.718728
2023-04-29T00:20:54.708Z,9.718850
2023-04-29T00:21:54.726Z,9.718994
2023-04-29T00:22:54.688Z,9.719118
2023-04-29T00:23:54.708Z,9.719122
2023-04-29T00:24:54.692Z,9.719253
2023-04-29T00:25:54.644Z,9.719317
2023-04-29T00:26:54.651Z,9.719287
2023-04-29T00:27:54.654Z,9.719195
2023-04-29T00:28:54.697Z,9.719356
2023-04-29T00:29:54.772Z,9.719417
2023-04-29T00:30:54.656Z,9.719212
2023-04-29T00:31:54.625Z,9.719453
2023-04-29T00:32:54.694Z,9.718580
2023-04-29T00:33:54.606Z,9.718951
2023-04-29T00:34:54.617Z,9.719026
2023-04-29T00:35:54.558Z,9.718979
2023-04-29T00:36:54.641Z,9.719008
2023-04-29T00:37:54.564Z,9.718632
2023-04-29T00:38:54.587Z,9.718819
2023-04-29T00:39:54.520Z,9.718673
2023-04-29T00:40:55.506Z,9.718296
2023-04-29T00:41:54.508Z,9.718127
2023-04-29T00:42:54.529Z,9.718755
2023-04-29T00:43:54.478Z,9.718989
2023-04-29T00:44:54.492Z,9.718776
2023-04-29T00:45:54.504Z,9.718720
2023-04-29T00:46:54.461Z,9.718525
2023-04-29T00:47:54.486Z,9.718634
2023-04-29T00:48:54.430Z,9.718527
2023-04-29T00:49:54.555Z,9.718807
2023-04-29T00:50:54.418Z,9.718828
2023-04-29T00:51:54.429Z,9.718842
2023-04-29T00:52:54.438Z,9.718759
2023-04-29T00:53:54.396Z,9.718815
2023-04-29T00:54:54.382Z,9.718749
2023-04-29T00:55:54.374Z,9.718980
2023-04-29T00:56:54.364Z,9.719106
2023-04-29T00:57:54.369Z,9.719009
2023-04-29T00:58:54.389Z,9.719045
2023-04-29T00:59:54.500Z,9.719154
2023-04-29T01:00:56.304Z,9.719317
2023-04-29T01:01:54.345Z,9.719162
2023-04-29T01:02:54.369Z,9.719238
2023-04-29T01:03:54.404Z,9.719307
2023-04-29T01:04:54.365Z,9.719284
2023-04-29T01:05:55.312Z,9.719320
2023-04-29T01:06:54.263Z,9.719356
2023-04-29T01:07:54.252Z,9.719285
2023-04-29T01:08:54.275Z,9.719260
2023-04-29T01:09:54.384Z,9.719322
2023-04-29T01:10:54.245Z,9.719329
2023-04-29T01:11:54.240Z,9.719254
2023-04-29T01:12:54.199Z,9.719264
2023-04-29T01:13:54.203Z,9.719273
2023-04-29T01:14:54.179Z,9.719413
2023-04-29T01:15:54.184Z,9.719331
2023-04-29T01:16:54.164Z,9.719367
2023-04-29T01:17:54.165Z,9.719372
2023-04-29T01:18:54.142Z,9.719390
2023-04-29T01:19:54.367Z,9.719326
2023-04-29T01:20:54.160Z,9.719276
2023-04-29T01:21:54.141Z,9.719295
2023-04-29T01:22:54.172Z,9.719259
2023-04-29T01:23:54.123Z,9.719258
2023-04-29T01:24:54.103Z,9.719219
2023-04-29T01:25:54.100Z,9.719151
2023-04-29T01:26:54.111Z,9.719199
2023-04-29T01:27:54.052Z,9.719018
2023-04-29T01:28:54.043Z,9.719105
2023-04-29T01:29:54.212Z,9.719163
2023-04-29T01:30:54.026Z,9.719183
2023-04-29T01:31:54.162Z,9.719213
2023-04-29T01:32:54.115Z,9.719064
2023-04-29T01:33:54.016Z,9.719166
2023-04-29T01:34:54.082Z,9.719214
2023-04-29T01:35:53.985Z,9.719399
2023-04-29T01:36:54.007Z,9.719144
2023-04-29T01:37:53.972Z,9.718944
2023-04-29T01:38:53.949Z,9.719035
2023-04-29T01:39:54.251Z,9.719147
2023-04-29T01:40:53.946Z,9.718996
2023-04-29T01:41:53.956Z,9.719057
2023-04-29T01:42:53.906Z,9.719032
2023-04-29T01:43:53.914Z,9.719139
2023-04-29T01:44:53.905Z,9.719121
2023-04-29T01:45:53.899Z,9.719085
2023-04-29T01:46:54.070Z,9.718976
2023-04-29T01:47:53.949Z,9.719070
2023-04-29T01:48:53.849Z,9.719010
2023-04-29T01:49:54.068Z,9.718933
2023-04-29T01:50:53.874Z,9.719034
2023-04-29T01:51:53.860Z,9.719168
2023-04-29T01:52:53.840Z,9.719097
2023-04-29T01:53:53.821Z,9.719122
2023-04-29T01:54:53.825Z,9.719122
2023-04-29T01:55:53.799Z,9.719122
2023-04-29T01:56:53.776Z,9.719057
2023-04-29T01:57:53.781Z,9.719081
2023-04-29T01:58:53.815Z,9.719103
2023-04-29T01:59:53.887Z,9.719149
2023-04-29T02:00:53.795Z,9.719111
2023-04-29T02:01:53.730Z,9.719068
2023-04-29T02:02:53.841Z,9.719043
2023-04-29T02:03:53.855Z,9.719089
2023-04-29T02:04:53.758Z,9.719197
2023-04-29T02:05:53.704Z,9.719245
2023-04-29T02:06:53.736Z,9.719150
2023-04-29T02:07:53.692Z,9.719092
2023-04-29T02:08:53.674Z,9.719084
2023-04-29T02:09:53.843Z,9.719062
2023-04-29T02:10:53.647Z,9.719159
2023-04-29T02:11:53.641Z,9.719149
2023-04-29T02:12:53.624Z,9.719125
2023-04-29T02:13:53.624Z,9.719102
2023-04-29T02:14:53.653Z,9.719090
2023-04-29T02:15:53.650Z,9.719088
2023-04-29T02:16:53.620Z,9.719137
2023-04-29T02:17:53.642Z,9.719096
2023-04-29T02:18:53.576Z,9.719149
2023-04-29T02:19:53.909Z,9.719100
2023-04-29T02:20:53.557Z,9.719157
2023-04-29T02:21:53.538Z,9.719138
2023-04-29T02:22:53.559Z,9.719266
2023-04-29T02:23:53.528Z,9.719255
2023-04-29T02:24:53.500Z,9.719238
2023-04-29T02:25:53.516Z,9.719174
2023-04-29T02:26:53.527Z,9.719222
2023-04-29T02:27:53.487Z,9.719194
2023-04-29T02:28:53.574Z,9.719097
2023-04-29T02:29:53.673Z,9.719000
2023-04-29T02:30:53.512Z,9.719123
2023-04-29T02:31:53.543Z,9.719057
2023-04-29T02:32:53.464Z,9.719254
2023-04-29T02:33:53.435Z,9.719178
2023-04-29T02:34:53.466Z,9.719153
2023-04-29T02:35:53.393Z,9.719083
2023-04-29T02:36:53.511Z,9.719082
2023-04-29T02:37:53.399Z,9.719062
2023-04-29T02:38:53.414Z,9.719080
2023-04-29T02:39:53.821Z,9.718996
2023-04-29T02:40:53.418Z,9.719027
2023-04-29T02:41:53.346Z,9.719069
2023-04-29T02:42:53.345Z,9.719140
2023-04-29T02:43:53.332Z,9.719071
2023-04-29T02:44:53.448Z,9.719069
2023-04-29T02:45:53.388Z,9.719121
2023-04-29T02:46:53.311Z,9.719089
2023-04-29T02:47:53.328Z,9.719233
2023-04-29T02:48:54.288Z,9.719423
2023-04-29T02:49:53.640Z,9.719289
2023-04-29T02:50:54.264Z,9.719223
2023-04-29T02:51:53.265Z,9.719239
2023-04-29T02:52:53.322Z,9.719291
2023-04-29T02:53:53.254Z,9.719281
2023-04-29T02:54:53.248Z,9.719329
2023-04-29T02:55:53.225Z,9.719420
2023-04-29T02:56:53.250Z,9.719275
2023-04-29T02:57:53.201Z,9.719384
2023-04-29T02:58:53.182Z,9.719292
2023-04-29T02:59:53.387Z,9.719328
2023-04-29T03:00:53.228Z,9.719367
2023-04-29T03:01:53.196Z,9.719355
2023-04-29T03:02:53.262Z,9.719290
2023-04-29T03:03:53.364Z,9.719326
2023-04-29T03:04:53.151Z,9.719276
2023-04-29T03:05:53.123Z,9.719279
2023-04-29T03:06:53.101Z,9.719378
2023-04-29T03:07:53.101Z,9.719353
2023-04-29T03:08:53.152Z,9.719347
2023-04-29T03:09:53.362Z,9.719387
2023-04-29T03:10:53.070Z,9.719308
2023-04-29T03:12:24.984Z,9.719258
2023-04-29T03:12:53.050Z,9.719151
2023-04-29T03:13:53.075Z,9.719120
2023-04-29T03:14:53.010Z,9.719206
2023-04-29T03:15:53.003Z,9.719200
2023-04-29T03:16:54.056Z,9.719262
2023-04-29T03:17:53.071Z,9.719343
2023-04-29T03:18:52.996Z,9.719349
2023-04-29T03:19:53.171Z,9.719493
2023-04-29T03:20:52.957Z,9.719242
2023-04-29T03:21:54.026Z,9.719171
2023-04-29T03:22:53.962Z,9.719091
2023-04-29T03:23:52.935Z,9.719268
2023-04-29T03:24:52.937Z,9.719337
2023-04-29T03:25:52.949Z,9.719153
2023-04-29T03:26:52.906Z,9.719078
2023-04-29T03:27:52.878Z,9.719324
2023-04-29T03:28:52.886Z,9.719335
2023-04-29T03:29:53.165Z,9.719089
2023-04-29T03:30:52.936Z,9.719287
2023-04-29T03:31:52.919Z,9.719214
2023-04-29T03:32:52.839Z,9.719152
2023-04-29T03:33:52.834Z,9.719234
2023-04-29T03:34:52.807Z,9.719278
2023-04-29T03:35:53.816Z,9.719244
2023-04-29T03:36:52.854Z,9.719274
2023-04-29T03:37:52.786Z,9.719269
2023-04-29T03:38:52.769Z,9.719307
2023-04-29T03:39:52.942Z,9.719288
2023-04-29T03:40:52.757Z,9.719235
2023-04-29T03:41:52.765Z,9.719128
2023-04-29T03:42:52.736Z,9.719206
2023-04-29T03:43:52.759Z,9.719225
2023-04-29T03:44:52.712Z,9.719274
2023-04-29T03:45:52.782Z,9.719241
2023-04-29T03:46:52.703Z,9.719281
2023-04-29T03:47:52.725Z,9.719275
2023-04-29T03:48:52.672Z,9.719250
2023-04-29T03:49:52.815Z,9.719202
2023-04-29T03:50:52.671Z,9.719227
2023-04-29T03:51:52.677Z,9.719191
2023-04-29T03:52:52.635Z,9.719241
2023-04-29T03:53:52.652Z,9.719208
2023-04-29T03:54:52.611Z,9.719214
2023-04-29T03:55:52.594Z,9.719213
2023-04-29T03:56:52.626Z,9.719164
2023-04-29T03:57:52.614Z,9.719252
2023-04-29T03:58:52.608Z,9.719283
2023-04-29T03:59:52.838Z,9.719221
2023-04-29T04:00:52.550Z,9.719264
2023-04-29T04:01:52.607Z,9.719200
2023-04-29T04:02:52.845Z,9.719290
2023-04-29T04:03:52.680Z,9.719274
2023-04-29T04:04:52.581Z,9.719048
2023-04-29T04:05:52.511Z,9.719152
2023-04-29T04:06:52.566Z,9.719216
2023-04-29T04:07:52.510Z,9.719234
2023-04-29T04:08:52.502Z,9.719153
2023-04-29T04:09:52.759Z,9.719111
2023-04-29T04:10:52.456Z,9.719156
2023-04-29T04:11:52.447Z,9.719239
2023-04-29T04:12:52.456Z,9.719215
2023-04-29T04:13:52.434Z,9.718893
2023-04-29T04:14:52.436Z,9.719147
2023-04-29T04:15:52.581Z,9.719261
2023-04-29T04:16:52.428Z,9.719309
2023-04-29T04:17:52.440Z,9.719137
2023-04-29T04:18:52.389Z,9.719234
2023-04-29T04:19:52.701Z,9.719265
2023-04-29T04:20:52.382Z,9.719090
2023-04-29T04:21:52.346Z,9.719315
2023-04-29T04:22:52.355Z,9.719691
2023-04-29T04:23:52.333Z,9.719420
2023-04-29T04:24:52.342Z,9.719423
2023-04-29T04:25:52.307Z,9.719141
2023-04-29T04:26:52.333Z,9.719071
2023-04-29T04:27:52.313Z,9.719295
2023-04-29T04:28:52.284Z,9.719138
2023-04-29T04:29:52.518Z,9.719187
2023-04-29T04:30:52.304Z,9.719272
2023-04-29T04:31:52.328Z,9.719350
2023-04-29T04:32:52.351Z,9.719341
2023-04-29T04:33:52.235Z,9.719295
2023-04-29T04:34:52.243Z,9.719281
2023-04-29T04:35:52.211Z,9.719399
2023-04-29T04:36:52.220Z,9.719358
2023-04-29T04:37:52.207Z,9.719253
2023-04-29T04:38:52.221Z,9.719234
2023-04-29T04:39:52.398Z,9.719161
2023-04-29T04:40:52.186Z,9.719234
2023-04-29T04:41:52.190Z,9.719261
2023-04-29T04:42:54.070Z,9.719304
2023-04-29T04:43:52.180Z,9.719210
2023-04-29T04:44:52.136Z,9.719262
2023-04-29T04:45:52.250Z,9.719343
2023-04-29T04:46:52.130Z,9.719304
2023-04-29T04:47:52.138Z,9.719213
2023-04-29T04:48:52.093Z,9.719228
2023-04-29T04:49:52.211Z,9.719321
2023-04-29T04:50:52.073Z,9.719291
2023-04-29T04:51:52.091Z,9.719286
2023-04-29T04:52:52.055Z,9.719303
2023-04-29T04:53:52.050Z,9.719360
2023-04-29T04:54:52.053Z,9.719399
2023-04-29T04:55:52.043Z,9.719368
2023-04-29T04:56:52.105Z,9.719352
2023-04-29T04:57:52.003Z,9.719393
2023-04-29T04:58:52.005Z,9.719348
2023-04-29T04:59:52.179Z,9.719350
2023-04-29T05:00:52.058Z,9.719337
2023-04-29T05:01:51.971Z,9.719285
2023-04-29T05:02:52.029Z,9.719318
2023-04-29T05:03:52.061Z,9.719237
2023-04-29T05:04:51.948Z,9.719344
2023-04-29T05:05:51.956Z,9.719255
2023-04-29T05:06:51.942Z,9.719302
2023-04-29T05:07:51.912Z,9.719254
2023-04-29T05:08:51.906Z,9.719426
2023-04-29T05:09:52.135Z,9.719336
2023-04-29T05:10:51.908Z,9.719305
2023-04-29T05:11:51.880Z,9.719385
2023-04-29T05:12:51.867Z,9.719370
2023-04-29T05:13:51.898Z,9.719356
2023-04-29T05:14:51.839Z,9.719530
2023-04-29T05:15:51.858Z,9.719474
2023-04-29T05:16:51.856Z,9.719398
2023-04-29T05:17:51.836Z,9.719345
2023-04-29T05:18:51.803Z,9.719350
2023-04-29T05:19:51.944Z,9.719424
2023-04-29T05:20:51.783Z,9.719254
2023-04-29T05:21:51.784Z,9.719544
2023-04-29T05:22:51.801Z,9.719406
2023-04-29T05:23:51.790Z,9.719584
2023-04-29T05:24:51.761Z,9.719588
2023-04-29T05:25:51.735Z,9.719525
2023-04-29T05:26:52.777Z,9.719481
2023-04-29T05:27:51.728Z,9.719563
2023-04-29T05:28:51.744Z,9.719566
2023-04-29T05:29:51.862Z,9.719531
2023-04-29T05:30:51.778Z,9.719516
2023-04-29T05:31:51.688Z,9.719430
2023-04-29T05:32:51.774Z,9.719502
2023-04-29T05:33:52.666Z,9.719686
2023-04-29T05:34:51.644Z,9.719743
2023-04-29T05:35:51.656Z,9.719661
2023-04-29T05:36:51.634Z,9.719563
2023-04-29T05:37:51.626Z,9.719593
2023-04-29T05:38:51.674Z,9.719495
2023-04-29T05:39:51.784Z,9.719492
2023-04-29T05:40:51.588Z,9.719560
2023-04-29T05:41:51.646Z,9.719432
2023-04-29T05:42:51.590Z,9.719317
2023-04-29T05:43:51.583Z,9.719252
2023-04-29T05:44:51.545Z,9.719397
2023-04-29T05:45:51.558Z,9.719296
2023-04-29T05:46:51.525Z,9.719416
2023-04-29T05:47:51.633Z,9.719419
2023-04-29T05:48:51.554Z,9.719403
2023-04-29T05:49:51.612Z,9.719245
2023-04-29T05:50:51.619Z,9.719317
2023-04-29T05:51:51.498Z,9.719312
2023-04-29T05:52:51.505Z,9.719257
2023-04-29T05:53:51.461Z,9.719217
2023-04-29T05:54:51.480Z,9.719357
2023-04-29T05:55:51.644Z,9.719277
2023-04-29T05:56:52.436Z,9.719460
2023-04-29T05:57:51.422Z,9.719464
2023-04-29T05:58:51.424Z,9.719370
2023-04-29T05:59:51.537Z,9.719195
2023-04-29T06:00:51.396Z,9.719133
2023-04-29T06:01:51.387Z,9.719091
2023-04-29T06:02:58.729Z,9.719142
2023-04-29T06:03:53.595Z,9.719393
2023-04-29T06:04:51.654Z,9.719297
2023-04-29T06:05:51.660Z,9.719228
2023-04-29T06:06:51.377Z,9.719190
2023-04-29T06:07:51.331Z,9.719085
2023-04-29T06:08:51.321Z,9.719181
2023-04-29T06:09:51.518Z,9.719157
2023-04-29T06:10:51.301Z,9.719029
2023-04-29T06:11:51.310Z,9.719139
2023-04-29T06:12:51.283Z,9.719007
2023-04-29T06:13:51.308Z,9.719064
2023-04-29T06:14:51.264Z,9.718962
2023-04-29T06:15:51.345Z,9.719124
2023-04-29T06:16:51.235Z,9.719090
2023-04-29T06:17:51.325Z,9.719105
2023-04-29T06:18:51.232Z,9.719234
2023-04-29T06:19:51.335Z,9.719508
2023-04-29T06:20:51.208Z,9.719339
2023-04-29T06:21:51.209Z,9.719139
2023-04-29T06:22:51.191Z,9.719049
2023-04-29T06:23:51.192Z,9.718996
2023-04-29T06:24:51.163Z,9.719040
2023-04-29T06:25:52.811Z,9.719179
2023-04-29T06:26:51.159Z,9.719027
2023-04-29T06:27:51.144Z,9.719103
2023-04-29T06:28:51.122Z,9.719274
2023-04-29T06:29:51.390Z,9.719235
2023-04-29T06:30:51.158Z,9.719162
2023-04-29T06:31:51.120Z,9.719279
2023-04-29T06:32:51.189Z,9.719122
2023-04-29T06:33:51.120Z,9.719146
2023-04-29T06:34:51.098Z,9.719102
2023-04-29T06:35:51.066Z,9.719198
2023-04-29T06:36:51.041Z,9.719093
2023-04-29T06:37:51.034Z,9.719058
2023-04-29T06:38:51.047Z,9.719059
2023-04-29T06:39:51.222Z,9.719032
2023-04-29T06:40:51.005Z,9.719054
2023-04-29T06:41:51.000Z,9.719153
2023-04-29T06:42:50.977Z,9.719172
2023-04-29T06:43:50.984Z,9.719142
2023-04-29T06:44:50.980Z,9.719126
2023-04-29T06:45:50.954Z,9.719227
2023-04-29T06:46:50.963Z,9.719126
2023-04-29T06:47:51.014Z,9.719253
2023-04-29T06:48:50.940Z,9.719247
2023-04-29T06:49:51.233Z,9.719268
2023-04-29T06:50:50.902Z,9.719266
2023-04-29T06:51:50.892Z,9.719113
2023-04-29T06:52:50.883Z,9.719064
2023-04-29T06:53:50.894Z,9.719117
2023-04-29T06:54:50.869Z,9.719034
2023-04-29T06:55:50.857Z,9.719053
2023-04-29T06:56:50.839Z,9.719099
2023-04-29T06:57:50.835Z,9.719051
2023-04-29T06:58:50.823Z,9.719221
2023-04-29T06:59:51.010Z,9.719308
2023-04-29T07:00:50.991Z,9.719268
2023-04-29T07:01:50.829Z,9.719113
2023-04-29T07:02:50.897Z,9.719114
2023-04-29T07:03:50.912Z,9.719136
2023-04-29T07:04:50.974Z,9.719058
2023-04-29T07:05:50.750Z,9.719148
2023-04-29T07:06:50.770Z,9.719197
2023-04-29T07:07:50.740Z,9.719210
2023-04-29T07:08:50.715Z,9.719137
2023-04-29T07:09:51.206Z,9.719111
2023-04-29T07:10:50.705Z,9.719093
2023-04-29T07:11:50.712Z,9.719135
2023-04-29T07:12:50.671Z,9.719209
2023-04-29T07:13:50.674Z,9.719006
2023-04-29T07:14:50.660Z,9.718985
2023-04-29T07:15:50.675Z,9.719002
2023-04-29T07:16:50.685Z,9.718983
2023-04-29T07:17:50.656Z,9.719169
2023-04-29T07:18:50.618Z,9.719227
2023-04-29T07:19:50.926Z,9.719203
2023-04-29T07:20:50.606Z,9.719148
2023-04-29T07:21:50.607Z,9.719240
2023-04-29T07:22:50.590Z,9.719201
2023-04-29T07:23:50.584Z,9.719270
2023-04-29T07:24:50.701Z,9.719252
2023-04-29T07:25:50.553Z,9.719193
2023-04-29T07:26:50.534Z,9.719196
2023-04-29T07:27:50.541Z,9.719306
2023-04-29T07:28:50.528Z,9.719310
2023-04-29T07:29:50.506Z,9.719272
2023-04-29T07:30:50.508Z,9.719243
2023-04-29T07:31:50.493Z,9.719193
2023-04-29T07:32:50.611Z,9.719205
2023-04-29T07:33:50.463Z,9.719219
2023-04-29T07:34:50.541Z,9.719225
2023-04-29T07:35:50.467Z,9.719190
2023-04-29T07:36:50.443Z,9.719273
2023-04-29T07:37:50.437Z,9.719328
2023-04-29T07:38:50.430Z,9.719357
2023-04-29T07:39:50.407Z,9.719300
2023-04-29T07:40:50.396Z,9.719240
2023-04-29T07:41:50.387Z,9.719388
2023-04-29T07:42:50.405Z,9.719376
2023-04-29T07:43:50.389Z,9.719192
2023-04-29T07:44:50.414Z,9.719357
2023-04-29T07:45:50.380Z,9.719452
2023-04-29T07:46:50.334Z,9.719419
2023-04-29T07:47:50.377Z,9.719326
2023-04-29T07:48:50.317Z,9.719309
2023-04-29T07:49:50.327Z,9.719393
2023-04-29T07:50:50.310Z,9.719570
2023-04-29T07:51:50.306Z,9.719476
2023-04-29T07:52:50.291Z,9.719351
2023-04-29T07:53:50.281Z,9.719318
2023-04-29T07:54:50.417Z,9.719477
2023-04-29T07:55:50.247Z,9.719043
2023-04-29T07:56:50.235Z,9.719364
2023-04-29T07:57:50.245Z,9.719415
2023-04-29T07:58:50.328Z,9.719351
2023-04-29T07:59:50.208Z,9.719290
2023-04-29T08:00:50.225Z,9.719141
2023-04-29T08:01:50.196Z,9.719190
2023-04-29T08:02:50.281Z,9.719313
2023-04-29T08:03:50.328Z,9.719450
2023-04-29T08:04:50.599Z,9.719467
2023-04-29T08:05:50.190Z,9.719366
2023-04-29T08:06:50.130Z,9.719309
2023-04-29T08:07:50.158Z,9.719217
2023-04-29T08:08:50.116Z,9.719255
2023-04-29T08:09:50.152Z,9.719319
2023-04-29T08:10:50.090Z,9.719200
2023-04-29T08:11:50.118Z,9.719238
2023-04-29T08:12:50.083Z,9.719155
2023-04-29T08:13:50.077Z,9.719139
2023-04-29T08:14:50.098Z,9.719125
2023-04-29T08:15:50.271Z,9.719224
2023-04-29T08:16:50.060Z,9.719266
2023-04-29T08:17:50.050Z,9.719210
2023-04-29T08:18:50.026Z,9.719216
2023-04-29T08:19:50.029Z,9.719288
2023-04-29T08:20:50.084Z,9.719238
2023-04-29T08:21:49.993Z,9.719255
2023-04-29T08:22:50.007Z,9.719300
2023-04-29T08:23:49.984Z,9.719209
2023-04-29T08:24:49.965Z,9.719293
2023-04-29T08:25:49.973Z,9.719316
2023-04-29T08:26:49.956Z,9.719374
2023-04-29T08:27:50.948Z,9.719371
2023-04-29T08:28:49.941Z,9.719238
2023-04-29T08:29:49.916Z,9.719299
2023-04-29T08:30:49.909Z,9.719285
2023-04-29T08:31:49.986Z,9.719242
2023-04-29T08:32:49.943Z,9.719191
2023-04-29T08:33:49.908Z,9.719161
2023-04-29T08:34:49.868Z,9.719247
2023-04-29T08:35:49.847Z,9.719254
2023-04-29T08:36:49.884Z,9.719286
2023-04-29T08:37:49.855Z,9.719294
2023-04-29T08:38:49.870Z,9.719286
2023-04-29T08:39:49.828Z,9.719373
2023-04-29T08:40:49.810Z,9.719279
2023-04-29T08:41:49.859Z,9.719295
2023-04-29T08:42:49.832Z,9.719223
2023-04-29T08:43:49.799Z,9.719296
2023-04-29T08:44:49.784Z,9.719329
2023-04-29T08:45:49.782Z,9.719253
2023-04-29T08:46:49.773Z,9.719134
2023-04-29T08:47:49.864Z,9.719174
2023-04-29T08:48:49.827Z,9.719224
2023-04-29T08:49:49.732Z,9.719299
2023-04-29T08:50:49.701Z,9.719260
2023-04-29T08:51:49.696Z,9.719222
2023-04-29T08:52:49.704Z,9.719131
2023-04-29T08:53:49.703Z,9.719107
2023-04-29T08:54:49.686Z,9.719280
2023-04-29T08:55:49.661Z,9.719331
2023-04-29T08:56:49.658Z,9.719332
2023-04-29T08:57:49.690Z,9.719314
2023-04-29T08:58:49.665Z,9.719246
2023-04-29T08:59:49.645Z,9.719147
2023-04-29T09:00:49.648Z,9.719318
2023-04-29T09:01:49.624Z,9.719254
2023-04-29T09:02:49.628Z,9.719187
2023-04-29T09:03:49.762Z,9.719247
2023-04-29T09:04:50.575Z,9.719157
2023-04-29T09:05:49.588Z,9.719252
2023-04-29T09:06:49.588Z,9.719331
2023-04-29T09:07:49.556Z,9.719263
2023-04-29T09:08:49.547Z,9.719128
2023-04-29T09:09:49.517Z,9.719153
2023-04-29T09:10:49.505Z,9.719331
2023-04-29T09:12:21.449Z,9.719175
2023-04-29T09:12:49.503Z,9.719230
2023-04-29T09:13:49.498Z,9.719174
2023-04-29T09:14:49.483Z,9.719162
2023-04-29T09:15:49.497Z,9.719182
2023-04-29T09:16:49.660Z,9.719153
2023-04-29T09:17:49.500Z,9.719214
2023-04-29T09:18:49.482Z,9.719313
2023-04-29T09:19:49.436Z,9.719239
2023-04-29T09:20:49.454Z,9.719110
2023-04-29T09:21:49.429Z,9.719155
2023-04-29T09:22:49.416Z,9.719260
2023-04-29T09:23:49.426Z,9.719386
2023-04-29T09:24:49.395Z,9.719670
2023-04-29T09:25:49.439Z,9.719675
2023-04-29T09:26:51.157Z,9.719801
2023-04-29T09:27:50.365Z,9.719517
2023-04-29T09:28:49.359Z,9.719392
2023-04-29T09:29:49.342Z,9.719430
2023-04-29T09:30:49.362Z,9.719373
2023-04-29T09:31:49.338Z,9.719232
2023-04-29T09:32:49.347Z,9.719223
2023-04-29T09:33:49.355Z,9.719138
2023-04-29T09:34:49.508Z,9.719317
2023-04-29T09:35:49.304Z,9.719335
2023-04-29T09:36:49.264Z,9.719374
2023-04-29T09:37:49.290Z,9.719354
2023-04-29T09:38:49.252Z,9.719330
2023-04-29T09:39:49.260Z,9.719405
2023-04-29T09:40:58.869Z,9.719116
2023-04-29T09:41:51.250Z,9.719049
2023-04-29T09:42:49.239Z,9.718951
2023-04-29T09:43:49.214Z,9.719217
2023-04-29T09:44:49.189Z,9.719316
2023-04-29T09:45:49.198Z,9.719270
2023-04-29T09:46:49.165Z,9.719222
2023-04-29T09:47:49.225Z,9.719281
2023-04-29T09:48:49.157Z,9.719215
2023-04-29T09:49:49.148Z,9.719278
2023-04-29T09:50:49.149Z,9.719287
2023-04-29T09:51:49.130Z,9.719242
2023-04-29T09:52:49.163Z,9.719317
2023-04-29T09:53:49.103Z,9.719251
2023-04-29T09:54:49.136Z,9.719188
2023-04-29T09:55:49.081Z,9.719197
2023-04-29T09:56:49.132Z,9.719140
2023-04-29T09:57:49.125Z,9.719247
2023-04-29T09:58:49.072Z,9.719239
2023-04-29T09:59:49.051Z,9.719120
2023-04-29T10:00:49.036Z,9.719210
2023-04-29T10:01:49.068Z,9.719313
2023-04-29T10:02:49.109Z,9.719331
2023-04-29T10:03:49.234Z,9.719270
2023-04-29T10:04:49.022Z,9.719264
2023-04-29T10:05:48.992Z,9.719308
2023-04-29T10:06:49.002Z,9.719274
2023-04-29T10:07:49.001Z,9.719295
2023-04-29T10:08:48.988Z,9.719250
2023-04-29T10:09:49.225Z,9.719295
2023-04-29T10:10:48.930Z,9.719339
2023-04-29T10:11:48.929Z,9.719359
2023-04-29T10:12:48.951Z,9.719225
2023-04-29T10:13:48.921Z,9.719308
2023-04-29T10:14:48.907Z,9.719330
2023-04-29T10:15:48.915Z,9.719294
2023-04-29T10:16:48.874Z,9.719287
2023-04-29T10:17:48.883Z,9.719276
2023-04-29T10:18:48.884Z,9.719274
2023-04-29T10:19:48.885Z,9.719197
2023-04-29T10:20:48.863Z,9.719394
2023-04-29T10:21:49.922Z,9.719317
2023-04-29T10:22:48.834Z,9.719300
2023-04-29T10:23:48.818Z,9.719252
2023-04-29T10:24:48.808Z,9.719286
2023-04-29T10:25:48.832Z,9.719441
2023-04-29T10:26:48.777Z,9.719404
2023-04-29T10:27:48.793Z,9.719392
2023-04-29T10:28:48.770Z,9.719394
2023-04-29T10:29:48.786Z,9.719356
2023-04-29T10:30:48.762Z,9.719235
2023-04-29T10:31:48.872Z,9.719251
2023-04-29T10:32:51.570Z,9.719266
2023-04-29T10:33:49.777Z,9.719348
2023-04-29T10:34:48.712Z,9.719231
2023-04-29T10:35:48.694Z,9.719103
2023-04-29T10:36:48.699Z,9.719127
2023-04-29T10:37:48.853Z,9.719194
2023-04-29T10:38:48.669Z,9.719187
2023-04-29T10:39:48.665Z,9.719166
2023-04-29T10:40:48.657Z,9.719266
2023-04-29T10:41:48.706Z,9.719193
2023-04-29T10:42:48.639Z,9.719283
2023-04-29T10:43:48.608Z,9.719318
2023-04-29T10:44:48.640Z,9.719331
2023-04-29T10:45:48.651Z,9.719338
2023-04-29T10:46:48.626Z,9.719303
2023-04-29T10:47:48.614Z,9.719326
2023-04-29T10:48:48.624Z,9.719228
2023-04-29T10:49:48.566Z,9.719274
2023-04-29T10:50:48.637Z,9.719412
2023-04-29T10:51:48.565Z,9.719540
2023-04-29T10:52:48.568Z,9.719426
2023-04-29T10:53:48.611Z,9.719396
2023-04-29T10:54:48.573Z,9.719344
2023-04-29T10:55:48.518Z,9.719275
2023-04-29T10:56:48.500Z,9.719328
2023-04-29T10:57:48.556Z,9.719379
2023-04-29T10:58:48.495Z,9.719368
2023-04-29T10:59:48.516Z,9.719322
2023-04-29T11:00:48.487Z,9.719273
2023-04-29T11:01:48.424Z,9.719441
2023-04-29T11:02:48.514Z,9.719316
2023-04-29T11:03:48.642Z,9.719314
2023-04-29T11:04:48.433Z,9.719317
2023-04-29T11:05:48.423Z,9.719336
2023-04-29T11:06:48.394Z,9.719354
2023-04-29T11:07:48.412Z,9.719398
2023-04-29T11:08:48.394Z,9.719339
2023-04-29T11:09:48.373Z,9.719193
2023-04-29T11:10:48.374Z,9.719279
2023-04-29T11:11:48.358Z,9.719502
2023-04-29T11:12:48.452Z,9.719504
2023-04-29T11:13:48.372Z,9.719464
2023-04-29T11:14:48.328Z,9.719344
2023-04-29T11:15:48.319Z,9.719252
2023-04-29T11:16:48.391Z,9.719217
2023-04-29T11:17:48.336Z,9.719315
2023-04-29T11:18:48.326Z,9.719033
2023-04-29T11:19:48.293Z,9.719071
2023-04-29T11:20:48.272Z,9.719144
2023-04-29T11:21:48.304Z,9.719264
2023-04-29T11:22:48.309Z,9.719182
2023-04-29T11:23:48.257Z,9.719226
2023-04-29T11:24:48.252Z,9.719097
2023-04-29T11:25:48.216Z,9.719155
2023-04-29T11:26:48.283Z,9.719097
2023-04-29T11:27:48.216Z,9.719114
2023-04-29T11:28:48.190Z,9.719085
2023-04-29T11:29:48.175Z,9.719086
2023-04-29T11:30:48.145Z,9.719049
2023-04-29T11:31:48.207Z,9.718946
2023-04-29T11:32:48.295Z,9.718942
2023-04-29T11:33:48.143Z,9.719004
2023-04-29T11:34:48.182Z,9.718979
2023-04-29T11:35:48.156Z,9.719088
2023-04-29T11:36:48.104Z,9.719101
2023-04-29T11:37:48.076Z,9.719094
2023-04-29T11:38:48.094Z,9.719160
2023-04-29T11:39:48.066Z,9.719254
2023-04-29T11:40:48.094Z,9.719238
2023-04-29T11:41:48.046Z,9.719161
2023-04-29T11:42:48.074Z,9.719234
2023-04-29T11:43:48.791Z,9.719207
2023-04-29T11:44:48.017Z,9.719151